Intracoastal City, Louisiana
Current Conditions -  °F | °C
As of 1:55 PM on Sunday 23 Nov 2014 (Local Time) from KPTN Reporting Station
Broken Clouds Broken Clouds  
Wind Chill: 73°   Ceiling: 3200
Heat Index: 73°   Visibility: 10mi
Dew Point: 64°   Wind: 23mph
Humidity: 73%   Direction: 240°WSW
Pressure: 29.66"   Gusts: 31mph
Location:  29.73°N, 91.12°W
Report Text: KPTN 231955Z AUTO 24020G27KT 10SM SCT025 BKN032 23/18 A2966 RMK AO1
Loading
Personal Weather Stations






























Interactive Weather Map New forecast layout! Learn more

10-Day Weather Forecast

Advertisements
Track Severe Weather on mobile